createdAt,value
2019-04-26T00:01:51.601Z,15.93
2019-04-26T00:04:20.461Z,15.30
2019-04-26T00:06:49.719Z,14.13
2019-04-26T00:09:22.379Z,15.23
2019-04-26T00:11:52.415Z,14.77
2019-04-26T00:14:28.401Z,16.63
2019-04-26T00:16:58.440Z,16.23
2019-04-26T00:19:27.334Z,16.33
2019-04-26T00:21:56.308Z,13.80
2019-04-26T00:24:25.295Z,15.10
2019-04-26T00:26:53.671Z,17.23
2019-04-26T00:29:22.062Z,16.97
2019-04-26T00:31:50.460Z,14.40
2019-04-26T00:34:19.627Z,18.23
2019-04-26T00:36:48.226Z,20.97
2019-04-26T00:39:16.616Z,17.90
2019-04-26T00:41:45.056Z,19.00
2019-04-26T00:44:14.781Z,19.90
2019-04-26T00:46:43.810Z,20.17
2019-04-26T00:49:12.610Z,17.23
2019-04-26T00:51:42.794Z,17.33
2019-04-26T00:54:11.634Z,17.50
2019-04-26T00:56:40.054Z,18.53
2019-04-26T00:59:09.251Z,18.67
2019-04-26T01:01:39.242Z,18.10
2019-04-26T01:04:07.643Z,18.50
2019-04-26T01:06:37.684Z,19.33
2019-04-26T01:09:06.732Z,16.93
2019-04-26T01:11:35.118Z,18.83
2019-04-26T01:14:03.547Z,17.90
2019-04-26T01:16:31.957Z,17.33
2019-04-26T01:19:00.309Z,18.80
2019-04-26T01:21:32.559Z,18.93
2019-04-26T01:24:01.199Z,19.27
2019-04-26T01:26:32.374Z,16.63
2019-04-26T01:29:14.148Z,18.77
2019-04-26T01:31:54.908Z,21.23
2019-04-26T01:34:24.205Z,21.53
2019-04-26T01:36:52.696Z,24.13
2019-04-26T01:39:22.513Z,21.27
2019-04-26T01:41:55.858Z,26.17
2019-04-26T01:44:40.194Z,22.93
2019-04-26T01:47:08.583Z,21.67
2019-04-26T01:49:36.978Z,23.77
2019-04-26T01:52:11.464Z,25.57
2019-04-26T01:54:42.265Z,25.80
2019-04-26T01:57:10.707Z,25.17
2019-04-26T01:59:42.219Z,25.37
2019-04-26T02:02:12.249Z,23.93
2019-04-26T02:04:42.268Z,28.10
2019-04-26T02:07:10.667Z,27.63
2019-04-26T02:09:39.042Z,28.07
2019-04-26T02:12:07.430Z,28.20
2019-04-26T02:14:35.818Z,27.20
2019-04-26T02:17:04.208Z,31.47
2019-04-26T02:19:33.661Z,29.87
2019-04-26T02:22:20.346Z,27.00
2019-04-26T02:24:50.376Z,28.93
2019-04-26T02:29:59.556Z,32.10
2019-04-26T02:32:29.417Z,30.63
2019-04-26T02:34:58.366Z,31.53
2019-04-26T02:37:26.999Z,29.70
2019-04-26T02:39:57.227Z,30.70
2019-04-26T02:42:30.935Z,29.43
2019-04-26T02:45:22.319Z,28.67
2019-04-26T02:48:10.149Z,29.33
2019-04-26T02:50:55.276Z,32.50
2019-04-26T02:53:37.392Z,29.93
2019-04-26T02:56:23.048Z,32.67
2019-04-26T02:59:00.631Z,31.57
2019-04-26T03:01:29.957Z,31.27
2019-04-26T03:03:59.825Z,30.37
2019-04-26T03:06:30.022Z,29.20
2019-04-26T03:08:58.845Z,32.73
2019-04-26T03:11:31.526Z,30.83
2019-04-26T03:14:05.622Z,30.73
2019-04-26T03:16:39.440Z,30.10
2019-04-26T03:19:23.765Z,31.93
2019-04-26T03:22:06.643Z,29.77
2019-04-26T03:24:44.330Z,29.00
2019-04-26T03:27:28.055Z,28.70
2019-04-26T03:30:19.549Z,29.20
2019-04-26T03:32:57.032Z,27.63
2019-04-26T03:36:00.568Z,27.50
2019-04-26T03:38:51.603Z,28.57
2019-04-26T03:41:41.070Z,27.67
2019-04-26T03:44:22.343Z,25.23
2019-04-26T03:46:56.799Z,26.63
2019-04-26T03:49:45.892Z,25.87
2019-04-26T03:52:46.038Z,27.23
2019-04-26T03:55:28.388Z,26.00
2019-04-26T03:58:13.471Z,23.17
2019-04-26T04:00:49.458Z,27.17
2019-04-26T04:03:26.562Z,27.37
2019-04-26T04:05:56.052Z,23.00
2019-04-26T04:08:33.620Z,23.10
2019-04-26T04:11:05.247Z,26.50
2019-04-26T04:13:50.486Z,25.70
2019-04-26T04:16:37.035Z,26.23
2019-04-26T04:19:34.813Z,25.70
2019-04-26T04:22:09.395Z,25.33
2019-04-26T04:24:45.556Z,22.93
2019-04-26T04:27:23.569Z,24.23
2019-04-26T04:30:16.206Z,23.87
2019-04-26T04:33:10.679Z,22.93
2019-04-26T04:35:43.835Z,22.40
2019-04-26T04:38:33.942Z,22.83
2019-04-26T04:41:29.952Z,22.27
2019-04-26T04:44:03.251Z,23.90
2019-04-26T04:46:39.610Z,23.87
2019-04-26T04:49:24.791Z,21.57
2019-04-26T04:52:22.089Z,24.17
2019-04-26T04:55:14.535Z,21.70
2019-04-26T04:57:50.171Z,23.30
2019-04-26T05:00:32.435Z,26.00
2019-04-26T05:03:26.582Z,22.93
2019-04-26T05:06:07.217Z,25.10
2019-04-26T05:08:38.908Z,24.83
2019-04-26T05:11:30.094Z,24.83
2019-04-26T05:14:19.848Z,25.63
2019-04-26T05:17:03.389Z,24.30
2019-04-26T05:19:40.859Z,22.57
2019-04-26T05:22:34.747Z,25.83
2019-04-26T05:25:36.835Z,22.47
2019-04-26T05:28:29.427Z,24.20
2019-04-26T05:31:34.538Z,22.63
2019-04-26T05:34:30.363Z,22.50
2019-04-26T05:37:08.074Z,23.03
2019-04-26T05:39:47.724Z,24.10
2019-04-26T05:43:07.444Z,25.77
2019-04-26T05:45:52.340Z,22.27
2019-04-26T05:48:46.741Z,31.35
2019-04-26T05:51:28.746Z,26.07
2019-04-26T05:54:45.378Z,24.40
2019-04-26T05:57:42.704Z,22.80
2019-04-26T06:00:30.477Z,22.10
2019-04-26T06:03:38.993Z,22.57
2019-04-26T06:06:30.040Z,22.30
2019-04-26T06:09:18.010Z,23.00
2019-04-26T06:12:12.442Z,22.50
2019-04-26T06:15:03.242Z,26.37
2019-04-26T06:17:57.311Z,24.13
2019-04-26T06:20:41.225Z,26.70
2019-04-26T06:23:30.979Z,27.47
2019-04-26T06:26:37.933Z,25.10
2019-04-26T06:29:18.456Z,21.30
2019-04-26T06:31:55.994Z,25.20
2019-04-26T06:34:30.632Z,23.00
2019-04-26T06:37:06.697Z,22.07
2019-04-26T06:39:53.393Z,22.37
2019-04-26T06:42:43.794Z,19.73
2019-04-26T06:45:19.658Z,23.70
2019-04-26T06:48:28.535Z,24.83
2019-04-26T06:51:24.277Z,19.13
2019-04-26T06:53:48.226Z,22.73
2019-04-26T06:56:24.283Z,20.50
2019-04-26T06:59:21.607Z,23.27
2019-04-26T07:01:56.560Z,23.03
2019-04-26T07:05:02.916Z,21.00
2019-04-26T07:07:52.928Z,21.70
2019-04-26T07:10:41.108Z,20.67
2019-04-26T07:13:23.253Z,19.67
2019-04-26T07:16:17.988Z,21.33
2019-04-26T07:18:39.982Z,18.70
2019-04-26T07:21:18.181Z,23.37
2019-04-26T07:24:20.126Z,23.40
2019-04-26T07:27:13.137Z,21.23
2019-04-26T07:30:04.053Z,19.90
2019-04-26T07:32:47.918Z,19.73
2019-04-26T07:35:34.555Z,19.23
2019-04-26T07:38:28.859Z,19.47
2019-04-26T07:41:29.280Z,24.17
2019-04-26T07:44:23.500Z,19.53
2019-04-26T07:46:55.200Z,21.57
2019-04-26T07:49:52.507Z,20.27
2019-04-26T07:52:27.110Z,19.33
2019-04-26T07:55:30.540Z,20.80
2019-04-26T07:58:27.761Z,21.20
2019-04-26T08:01:14.049Z,17.57
2019-04-26T08:03:50.401Z,17.43
2019-04-26T08:06:21.743Z,21.47
2019-04-26T08:08:55.534Z,19.40
2019-04-26T08:11:35.899Z,20.10
2019-04-26T08:14:10.606Z,20.93
2019-04-26T08:17:06.423Z,19.97
2019-04-26T08:19:38.518Z,19.50
2019-04-26T08:22:18.305Z,17.90
2019-04-26T08:24:37.479Z,17.67
2019-04-26T08:27:23.249Z,20.80
2019-04-26T08:29:50.585Z,18.17
2019-04-26T08:32:23.858Z,19.83
2019-04-26T08:34:55.588Z,19.77
2019-04-26T08:37:42.459Z,18.33
2019-04-26T08:40:16.398Z,16.33
2019-04-26T08:42:43.006Z,19.03
2019-04-26T08:45:14.945Z,18.70
2019-04-26T08:47:46.064Z,16.83
2019-04-26T08:50:17.692Z,20.93
2019-04-26T08:52:46.926Z,17.33
2019-04-26T08:55:15.309Z,18.00
2019-04-26T08:57:43.708Z,21.00
2019-04-26T09:00:32.230Z,25.57
2019-04-26T09:03:11.264Z,18.53
2019-04-26T09:05:36.541Z,19.87
2019-04-26T09:08:04.938Z,16.87
2019-04-26T09:10:33.320Z,19.53
2019-04-26T09:13:01.699Z,18.60
2019-04-26T09:15:51.559Z,17.43
2019-04-26T09:18:19.938Z,19.80
2019-04-26T09:20:48.346Z,15.57
2019-04-26T09:23:24.269Z,23.00
2019-04-26T09:25:59.443Z,15.13
2019-04-26T09:28:28.738Z,19.77
2019-04-26T09:31:07.730Z,15.03
2019-04-26T09:33:40.589Z,17.33
2019-04-26T09:36:09.551Z,16.40
2019-04-26T09:38:37.930Z,19.30
2019-04-26T09:41:06.322Z,16.83
2019-04-26T09:43:36.404Z,17.53
2019-04-26T09:46:21.326Z,15.33
2019-04-26T09:48:54.104Z,15.73
2019-04-26T09:51:22.569Z,16.07
2019-04-26T09:53:50.978Z,13.57
2019-04-26T09:56:19.383Z,15.57
2019-04-26T09:58:47.789Z,15.03
2019-04-26T10:01:19.649Z,14.30
2019-04-26T10:03:46.236Z,15.20
2019-04-26T10:06:14.629Z,16.13
2019-04-26T10:08:43.388Z,14.07
2019-04-26T10:11:14.657Z,15.17
2019-04-26T10:13:50.198Z,19.20
2019-04-26T10:16:22.886Z,15.30
2019-04-26T10:18:54.469Z,15.27
2019-04-26T10:21:23.118Z,13.57
2019-04-26T10:23:51.500Z,16.87
2019-04-26T10:26:23.302Z,14.30
2019-04-26T10:28:50.611Z,15.03
2019-04-26T10:31:20.423Z,17.13
2019-04-26T10:33:48.811Z,11.73
2019-04-26T10:36:17.184Z,13.47
2019-04-26T10:38:45.567Z,17.07
2019-04-26T10:41:14.034Z,29.07
2019-04-26T10:43:43.762Z,16.93
2019-04-26T10:46:12.391Z,14.27
2019-04-26T10:48:41.400Z,13.80
2019-04-26T10:51:09.943Z,15.20
2019-04-26T10:53:42.673Z,13.97
2019-04-26T10:56:29.004Z,12.30
2019-04-26T10:59:06.003Z,13.13
2019-04-26T11:01:34.937Z,15.57
2019-04-26T11:04:03.318Z,17.00
2019-04-26T11:06:31.698Z,17.27
2019-04-26T11:09:00.086Z,14.57
2019-04-26T11:11:28.638Z,12.27
2019-04-26T11:13:57.619Z,12.17
2019-04-26T11:16:26.449Z,10.83
2019-04-26T11:18:57.261Z,13.43
2019-04-26T11:21:24.934Z,12.30
2019-04-26T11:23:53.342Z,11.13
2019-04-26T11:26:21.756Z,11.83
2019-04-26T11:28:51.428Z,16.30
2019-04-26T11:31:23.436Z,13.90
2019-04-26T11:33:50.672Z,14.03
2019-04-26T11:36:19.402Z,13.67
2019-04-26T11:38:47.803Z,13.25
2019-04-26T11:41:16.189Z,12.73
2019-04-26T11:43:44.573Z,11.12
2019-04-26T11:46:12.990Z,11.95
2019-04-26T11:48:41.375Z,12.35
2019-04-26T11:51:09.778Z,10.68
2019-04-26T11:53:40.459Z,10.80
2019-04-26T11:56:08.199Z,11.33
2019-04-26T11:58:36.578Z,11.12
2019-04-26T12:01:06.611Z,11.80
2019-04-26T12:03:34.987Z,10.82
2019-04-26T12:06:05.029Z,10.08
2019-04-26T12:08:57.445Z,10.35
2019-04-26T12:11:31.613Z,11.25
2019-04-26T12:13:59.470Z,10.45
2019-04-26T12:16:26.083Z,13.55
2019-04-26T12:18:54.516Z,15.95
2019-04-26T12:21:22.929Z,11.40
2019-04-26T12:23:54.921Z,11.95
2019-04-26T12:26:22.993Z,9.95
2019-04-26T12:28:51.462Z,10.53
2019-04-26T12:31:19.813Z,12.28
2019-04-26T12:33:48.214Z,8.78
2019-04-26T12:36:16.673Z,7.78
2019-04-26T12:38:45.050Z,11.93
2019-04-26T12:41:17.179Z,10.35
2019-04-26T12:43:44.351Z,10.88
2019-04-26T12:46:27.189Z,8.23
2019-04-26T12:48:56.244Z,10.23
2019-04-26T12:51:24.603Z,9.85
2019-04-26T12:53:53.142Z,9.53
2019-04-26T12:56:21.590Z,8.03
2019-04-26T12:58:51.219Z,9.40
2019-04-26T13:01:20.494Z,13.38
2019-04-26T13:04:05.567Z,8.45
2019-04-26T13:06:36.972Z,10.55
2019-04-26T13:09:17.298Z,10.28
2019-04-26T13:11:48.972Z,9.30
2019-04-26T13:14:19.270Z,9.60
2019-04-26T13:17:01.122Z,10.20
2019-04-26T13:19:28.298Z,8.60
2019-04-26T13:21:56.708Z,8.53
2019-04-26T13:24:25.094Z,10.65
2019-04-26T13:26:53.478Z,10.58
2019-04-26T13:29:21.850Z,11.48
2019-04-26T13:31:50.372Z,9.58
2019-04-26T13:34:18.747Z,9.00
2019-04-26T13:36:47.120Z,7.80
2019-04-26T13:39:17.815Z,7.83
2019-04-26T13:41:45.549Z,9.28
2019-04-26T13:44:13.934Z,9.23
2019-04-26T13:47:03.655Z,8.85
2019-04-26T13:49:32.164Z,8.58
2019-04-26T13:52:00.534Z,11.05
2019-04-26T13:54:29.110Z,9.38
2019-04-26T13:56:57.481Z,7.75
2019-04-26T13:59:28.096Z,9.60
2019-04-26T14:01:55.958Z,9.93
2019-04-26T14:04:24.394Z,11.30
2019-04-26T14:06:53.292Z,11.23
2019-04-26T14:09:21.787Z,10.40
2019-04-26T14:11:50.214Z,10.80
2019-04-26T14:14:18.658Z,11.50
2019-04-26T14:16:47.395Z,10.27
2019-04-26T14:19:16.904Z,10.47
2019-04-26T14:21:45.646Z,10.17
2019-04-26T14:24:31.878Z,12.07
2019-04-26T14:27:01.953Z,10.50
2019-04-26T14:29:32.408Z,8.17
2019-04-26T14:32:00.426Z,9.27
2019-04-26T14:34:29.385Z,9.97
2019-04-26T14:37:06.383Z,10.83
2019-04-26T14:39:35.274Z,11.03
2019-04-26T14:41:58.443Z,12.43
2019-04-26T14:44:30.756Z,10.77
2019-04-26T14:46:57.902Z,11.10
2019-04-26T14:49:38.539Z,11.17
2019-04-26T14:51:56.544Z,9.97
2019-04-26T14:54:24.974Z,10.73
2019-04-26T14:56:53.397Z,10.43
2019-04-26T14:59:43.479Z,13.17
2019-04-26T15:02:13.262Z,10.40
2019-04-26T15:04:43.241Z,12.07
2019-04-26T15:07:12.219Z,12.77
2019-04-26T15:09:42.791Z,14.33
2019-04-26T15:12:14.103Z,11.03
2019-04-26T15:14:42.242Z,12.80
2019-04-26T15:17:12.451Z,13.27
2019-04-26T15:19:45.937Z,13.57
2019-04-26T15:22:12.193Z,13.80
2019-04-26T15:24:42.168Z,14.67
2019-04-26T15:27:10.618Z,14.80
2019-04-26T15:29:39.102Z,13.57
2019-04-26T15:32:07.500Z,11.30
2019-04-26T15:34:35.874Z,13.53
2019-04-26T15:37:04.253Z,15.00
2019-04-26T15:39:34.479Z,12.80
2019-04-26T15:42:07.117Z,10.90
2019-04-26T15:44:39.958Z,12.47
2019-04-26T15:47:09.973Z,13.70
2019-04-26T15:49:40.065Z,16.93
2019-04-26T15:52:08.488Z,12.53
2019-04-26T15:54:36.860Z,14.17
2019-04-26T15:57:06.630Z,16.37
2019-04-26T15:59:35.272Z,13.40
2019-04-26T16:02:03.639Z,13.00
2019-04-26T16:04:32.443Z,18.10
2019-04-26T16:07:02.478Z,12.87
2019-04-26T16:09:32.506Z,13.43
2019-04-26T16:12:03.363Z,13.43
2019-04-26T16:14:36.481Z,12.77
2019-04-26T16:17:03.259Z,13.77
2019-04-26T16:19:31.458Z,13.20
2019-04-26T16:21:59.858Z,16.73
2019-04-26T16:24:29.134Z,14.03
2019-04-26T16:26:57.640Z,15.73
2019-04-26T16:29:27.650Z,19.43
2019-04-26T16:31:58.553Z,15.20
2019-04-26T16:34:28.575Z,15.13
2019-04-26T16:36:56.934Z,16.37
2019-04-26T16:44:45.053Z,17.10
2019-04-26T16:47:13.287Z,16.37
2019-04-26T16:49:46.496Z,16.40
2019-04-26T16:52:14.164Z,15.50
2019-04-26T16:54:42.762Z,17.93
2019-04-26T16:57:12.431Z,16.70
2019-04-26T16:59:47.657Z,15.87
2019-04-26T17:00:30.719Z,12.53
2019-04-26T17:02:15.627Z,14.13
2019-04-26T17:04:43.399Z,16.27
2019-04-26T17:07:13.449Z,15.57
2019-04-26T17:09:57.040Z,14.10
2019-04-26T17:12:15.059Z,15.87
2019-04-26T17:14:47.749Z,19.17
2019-04-26T17:17:14.006Z,14.90
2019-04-26T17:19:43.232Z,18.93
2019-04-26T17:22:26.027Z,16.00
2019-04-26T17:25:04.786Z,15.93
2019-04-26T17:27:33.191Z,15.77
2019-04-26T17:30:02.920Z,16.97
2019-04-26T17:32:31.655Z,16.30
2019-04-26T17:35:04.874Z,17.57
2019-04-26T17:37:30.510Z,16.77
2019-04-26T17:40:00.851Z,17.33
2019-04-26T17:42:36.094Z,17.30
2019-04-26T17:45:03.991Z,22.37
2019-04-26T17:47:33.009Z,18.33
2019-04-26T17:50:04.567Z,20.67
2019-04-26T17:52:36.056Z,18.67
2019-04-26T17:55:01.515Z,15.53
2019-04-26T17:57:34.865Z,19.87
2019-04-26T18:00:07.344Z,19.70
2019-04-26T18:02:41.200Z,16.90
2019-04-26T18:05:03.237Z,18.63
2019-04-26T18:07:43.649Z,17.37
2019-04-26T18:10:02.318Z,14.67
2019-04-26T18:12:32.657Z,16.13
2019-04-26T18:15:06.142Z,18.10
2019-04-26T18:17:36.455Z,16.60
2019-04-26T18:20:18.870Z,17.97
2019-04-26T18:22:54.594Z,19.93
2019-04-26T18:25:23.423Z,19.90
2019-04-26T18:27:53.494Z,18.37
2019-04-26T18:30:23.634Z,17.70
2019-04-26T18:32:52.330Z,16.83
2019-04-26T18:35:20.724Z,17.40
2019-04-26T18:37:49.156Z,17.13
2019-04-26T18:40:20.391Z,15.63
2019-04-26T18:42:47.556Z,18.67
2019-04-26T18:45:21.432Z,19.60
2019-04-26T18:47:46.134Z,18.53
2019-04-26T18:50:14.907Z,18.80
2019-04-26T18:52:56.511Z,17.50
2019-04-26T18:55:29.015Z,17.40
2019-04-26T18:58:01.519Z,17.50
2019-04-26T19:00:29.013Z,20.47
2019-04-26T19:02:59.939Z,19.53
2019-04-26T19:05:30.069Z,17.77
2019-04-26T19:07:58.056Z,16.57
2019-04-26T19:10:29.334Z,18.07
2019-04-26T19:13:00.130Z,16.47
2019-04-26T19:15:33.665Z,18.00
2019-04-26T19:18:19.459Z,13.97
2019-04-26T19:20:49.639Z,18.50
2019-04-26T19:23:18.015Z,15.73
2019-04-26T19:25:46.390Z,16.93
2019-04-26T19:28:14.817Z,18.90
2019-04-26T19:30:49.032Z,18.53
2019-04-26T19:33:16.764Z,16.07
2019-04-26T19:35:47.097Z,14.53
2019-04-26T19:38:14.859Z,15.57
2019-04-26T19:40:47.615Z,15.93
2019-04-26T19:43:13.743Z,14.43
2019-04-26T19:45:47.053Z,18.13
2019-04-26T19:48:32.813Z,11.90
2019-04-26T19:51:19.178Z,12.93
2019-04-26T19:53:54.158Z,12.43
2019-04-26T19:56:27.544Z,11.27
2019-04-26T19:58:57.436Z,10.53
2019-04-26T20:01:24.983Z,8.60
2019-04-26T20:03:55.250Z,15.73
2019-04-26T20:06:26.660Z,8.30
2019-04-26T20:08:53.850Z,11.70
2019-04-26T20:11:22.614Z,8.17
2019-04-26T20:13:55.115Z,8.90
2019-04-26T20:16:22.642Z,9.60
2019-04-26T20:18:52.412Z,10.33
2019-04-26T20:21:21.724Z,8.87
2019-04-26T20:23:52.664Z,9.83
2019-04-26T20:26:20.453Z,8.17
2019-04-26T20:28:48.832Z,8.43
2019-04-26T20:31:21.865Z,8.13
2019-04-26T20:33:50.291Z,8.23
2019-04-26T20:36:18.665Z,9.60
2019-04-26T20:38:47.587Z,8.77
2019-04-26T20:41:16.402Z,8.47
2019-04-26T20:43:52.366Z,9.83
2019-04-26T20:46:15.828Z,10.37
2019-04-26T20:48:45.138Z,8.93
2019-04-26T20:51:13.614Z,10.43
2019-04-26T20:53:43.835Z,11.43
2019-04-26T20:56:18.328Z,9.97
2019-04-26T20:58:45.871Z,10.07
2019-04-26T21:01:14.180Z,8.27
2019-04-26T21:03:45.893Z,9.57
2019-04-26T21:06:12.749Z,10.43
2019-04-26T21:08:42.411Z,9.57
2019-04-26T21:11:11.193Z,9.37
2019-04-26T21:13:41.502Z,9.10
2019-04-26T21:16:14.747Z,9.30
2019-04-26T21:18:43.564Z,8.10
2019-04-26T21:21:11.876Z,7.80
2019-04-26T21:23:42.234Z,9.23
2019-04-26T21:26:21.705Z,8.53
2019-04-26T21:28:57.543Z,9.07
2019-04-26T21:31:36.177Z,7.47
2019-04-26T21:34:15.295Z,8.93
2019-04-26T21:36:46.094Z,8.13
2019-04-26T21:39:19.041Z,9.20
2019-04-26T21:41:49.290Z,10.07
2019-04-26T21:44:17.675Z,8.80
2019-04-26T21:46:49.726Z,9.07
2019-04-26T21:49:20.893Z,9.70
2019-04-26T21:51:51.330Z,8.80
2019-04-26T21:54:19.129Z,9.63
2019-04-26T21:56:49.747Z,11.47
2019-04-26T21:59:18.241Z,9.73
2019-04-26T22:01:48.166Z,10.53
2019-04-26T22:04:17.844Z,9.40
2019-04-26T22:06:46.294Z,9.57
2019-04-26T22:09:34.965Z,11.07
2019-04-26T22:11:59.669Z,11.13
2019-04-26T22:14:29.599Z,11.87
2019-04-26T22:17:02.053Z,14.37
2019-04-26T22:19:32.480Z,14.63
2019-04-26T22:22:04.214Z,16.20
2019-04-26T22:24:37.390Z,12.43
2019-04-26T22:27:05.773Z,12.77
2019-04-26T22:29:34.155Z,15.20
2019-04-26T22:32:03.686Z,13.67
2019-04-26T22:34:32.602Z,14.93
2019-04-26T22:37:01.356Z,14.27
2019-04-26T22:39:32.542Z,14.80
2019-04-26T22:42:02.720Z,15.63
2019-04-26T22:44:34.388Z,12.93
2019-04-26T22:47:14.022Z,14.77
2019-04-26T22:49:45.194Z,15.50
2019-04-26T22:52:16.251Z,14.63
2019-04-26T22:54:46.558Z,13.20
2019-04-26T22:57:16.006Z,14.93
2019-04-26T22:59:49.514Z,15.33
2019-04-26T23:02:18.520Z,18.07
2019-04-26T23:04:44.869Z,14.80
2019-04-26T23:07:18.427Z,21.10
2019-04-26T23:09:47.421Z,15.77
2019-04-26T23:12:33.859Z,13.97
2019-04-26T23:15:07.114Z,15.00
2019-04-26T23:17:53.582Z,13.60
2019-04-26T23:20:25.043Z,14.37
2019-04-26T23:22:53.698Z,12.87
2019-04-26T23:25:23.733Z,15.53
2019-04-26T23:27:55.132Z,14.03
2019-04-26T23:30:23.122Z,15.80
2019-04-26T23:32:52.199Z,14.47
2019-04-26T23:35:21.808Z,14.30
2019-04-26T23:37:50.181Z,14.70
2019-04-26T23:40:20.556Z,13.03
2019-04-26T23:42:51.557Z,15.50
2019-04-26T23:45:18.639Z,13.73
2019-04-26T23:47:47.042Z,15.23
2019-04-26T23:50:15.414Z,14.00
2019-04-26T23:52:43.795Z,14.13
2019-04-26T23:55:13.476Z,13.30
2019-04-26T23:57:43.505Z,14.63
